Weather at Air Marugán

Public forecast

Using degrees Celsius for public forecast. Weather courtesy of forecast.io.

Closest aviation weather report (METAR) to Air Marugán

Closest report is Adolfo Suárez Madrid–Barajas Airport, 45.3 nm (83.8 km) SE. Retrieved 2021/05/07 06:30 UTC (7 minutes ago):

LEMD 070630Z 00000KT CAVOK 13/08 Q1019 NOSIG

Closest aviation forecast (TAF) to Air Marugán

Closest forecast is Base Aérea de Colmenar Viejo, 30.5 nm (56.4 km) ESE. Retrieved 2021/05/07 06:26 UTC (11 minutes ago):

TAF LECV 070500Z 0706/0806 VRB05KT CAVOK TX24/0716Z TN11/0706Z